sensor_id;sensor_type;location;lat;lon;timestamp;temperature;humidity
12520;DHT22;6325;49.540;8.364;2022-10-16T00:00:40;17.40;99.90
12520;DHT22;6325;49.540;8.364;2022-10-16T00:03:08;17.10;99.90
12520;DHT22;6325;49.540;8.364;2022-10-16T00:05:39;17.20;99.90
12520;DHT22;6325;49.540;8.364;2022-10-16T00:08:06;17.10;99.90
12520;DHT22;6325;49.540;8.364;2022-10-16T00:10:35;17.30;99.90
12520;DHT22;6325;49.540;8.364;2022-10-16T00:13:04;16.80;99.90
12520;DHT22;6325;49.540;8.364;2022-10-16T00:15:33;17.10;99.90
12520;DHT22;6325;49.540;8.364;2022-10-16T00:18:03;17.10;99.90
12520;DHT22;6325;49.540;8.364;2022-10-16T00:20:33;17.70;99.90
12520;DHT22;6325;49.540;8.364;2022-10-16T00:23:02;17.20;99.90
12520;DHT22;6325;49.540;8.364;2022-10-16T00:25:29;17.50;99.90
12520;DHT22;6325;49.540;8.364;2022-10-16T00:27:58;17.20;99.90
12520;DHT22;6325;49.540;8.364;2022-10-16T00:30:26;17.10;99.90
12520;DHT22;6325;49.540;8.364;2022-10-16T00:32:54;17.70;99.90
12520;DHT22;6325;49.540;8.364;2022-10-16T00:35:21;17.50;99.90
12520;DHT22;6325;49.540;8.364;2022-10-16T00:37:48;16.60;99.90
12520;DHT22;6325;49.540;8.364;2022-10-16T00:40:15;17.10;99.90
12520;DHT22;6325;49.540;8.364;2022-10-16T00:42:42;17.10;99.90
12520;DHT22;6325;49.540;8.364;2022-10-16T00:45:10;17.40;99.90
12520;DHT22;6325;49.540;8.364;2022-10-16T00:47:41;17.10;99.90
12520;DHT22;6325;49.540;8.364;2022-10-16T00:50:16;16.60;99.90
12520;DHT22;6325;49.540;8.364;2022-10-16T00:52:46;16.90;99.90
12520;DHT22;6325;49.540;8.364;2022-10-16T00:55:13;17.00;99.90
12520;DHT22;6325;49.540;8.364;2022-10-16T00:57:41;17.00;99.90
12520;DHT22;6325;49.540;8.364;2022-10-16T01:00:11;17.10;99.90
12520;DHT22;6325;49.540;8.364;2022-10-16T01:02:40;17.30;99.90
12520;DHT22;6325;49.540;8.364;2022-10-16T01:05:07;17.10;99.90
12520;DHT22;6325;49.540;8.364;2022-10-16T01:07:41;17.20;99.90
12520;DHT22;6325;49.540;8.364;2022-10-16T01:10:17;17.00;99.90
12520;DHT22;6325;49.540;8.364;2022-10-16T01:12:50;17.10;99.90
12520;DHT22;6325;49.540;8.364;2022-10-16T01:15:22;16.70;99.90
12520;DHT22;6325;49.540;8.364;2022-10-16T01:17:57;17.10;99.90
12520;DHT22;6325;49.540;8.364;2022-10-16T01:20:30;17.10;99.90
12520;DHT22;6325;49.540;8.364;2022-10-16T01:23:15;16.90;99.90
12520;DHT22;6325;49.540;8.364;2022-10-16T01:26:08;17.70;99.90
12520;DHT22;6325;49.540;8.364;2022-10-16T01:28:41;17.10;99.90
12520;DHT22;6325;49.540;8.364;2022-10-16T01:31:10;16.60;99.90
12520;DHT22;6325;49.540;8.364;2022-10-16T01:33:43;16.70;99.90
12520;DHT22;6325;49.540;8.364;2022-10-16T01:36:14;16.60;99.90
12520;DHT22;6325;49.540;8.364;2022-10-16T01:38:44;17.10;99.90
12520;DHT22;6325;49.540;8.364;2022-10-16T01:41:17;17.10;99.90
12520;DHT22;6325;49.540;8.364;2022-10-16T01:43:49;17.00;99.90
12520;DHT22;6325;49.540;8.364;2022-10-16T01:46:20;16.60;99.90
12520;DHT22;6325;49.540;8.364;2022-10-16T01:48:48;17.10;99.90
12520;DHT22;6325;49.540;8.364;2022-10-16T01:51:18;17.30;99.90
12520;DHT22;6325;49.540;8.364;2022-10-16T01:53:48;17.00;99.90
12520;DHT22;6325;49.540;8.364;2022-10-16T01:56:18;17.00;99.90
12520;DHT22;6325;49.540;8.364;2022-10-16T01:58:52;17.00;99.90
12520;DHT22;6325;49.540;8.364;2022-10-16T02:01:22;17.00;99.90
12520;DHT22;6325;49.540;8.364;2022-10-16T02:03:52;17.00;99.90
12520;DHT22;6325;49.540;8.364;2022-10-16T02:06:20;17.00;99.90
12520;DHT22;6325;49.540;8.364;2022-10-16T02:08:48;17.00;99.90
12520;DHT22;6325;49.540;8.364;2022-10-16T02:11:15;17.00;99.90
12520;DHT22;6325;49.540;8.364;2022-10-16T02:13:45;16.90;99.90
12520;DHT22;6325;49.540;8.364;2022-10-16T02:16:14;16.90;99.90
12520;DHT22;6325;49.540;8.364;2022-10-16T02:18:42;16.90;99.90
12520;DHT22;6325;49.540;8.364;2022-10-16T02:21:18;16.90;99.90
12520;DHT22;6325;49.540;8.364;2022-10-16T02:23:53;16.90;99.90
12520;DHT22;6325;49.540;8.364;2022-10-16T02:26:27;17.00;99.90
12520;DHT22;6325;49.540;8.364;2022-10-16T02:28:59;16.90;99.90
12520;DHT22;6325;49.540;8.364;2022-10-16T02:31:34;16.80;99.90
12520;DHT22;6325;49.540;8.364;2022-10-16T02:34:03;16.70;99.90
12520;DHT22;6325;49.540;8.364;2022-10-16T02:36:32;16.90;99.90
12520;DHT22;6325;49.540;8.364;2022-10-16T02:39:01;16.80;99.90
12520;DHT22;6325;49.540;8.364;2022-10-16T02:41:30;17.00;99.90
12520;DHT22;6325;49.540;8.364;2022-10-16T02:43:57;16.90;99.90
12520;DHT22;6325;49.540;8.364;2022-10-16T02:46:26;16.80;99.90
12520;DHT22;6325;49.540;8.364;2022-10-16T02:48:54;16.90;99.90
12520;DHT22;6325;49.540;8.364;2022-10-16T02:51:21;17.00;99.90
12520;DHT22;6325;49.540;8.364;2022-10-16T02:53:48;17.00;99.90
12520;DHT22;6325;49.540;8.364;2022-10-16T02:56:15;17.00;99.90
12520;DHT22;6325;49.540;8.364;2022-10-16T02:58:43;16.90;99.90
12520;DHT22;6325;49.540;8.364;2022-10-16T03:01:10;16.90;99.90
12520;DHT22;6325;49.540;8.364;2022-10-16T03:03:38;16.90;99.90
12520;DHT22;6325;49.540;8.364;2022-10-16T03:06:06;17.00;99.90
12520;DHT22;6325;49.540;8.364;2022-10-16T03:08:33;16.80;99.90
12520;DHT22;6325;49.540;8.364;2022-10-16T03:11:01;16.90;99.90
12520;DHT22;6325;49.540;8.364;2022-10-16T03:13:27;16.80;99.90
12520;DHT22;6325;49.540;8.364;2022-10-16T03:15:54;16.80;99.90
12520;DHT22;6325;49.540;8.364;2022-10-16T03:18:21;16.80;99.90
12520;DHT22;6325;49.540;8.364;2022-10-16T03:20:48;17.00;99.90
12520;DHT22;6325;49.540;8.364;2022-10-16T03:23:16;16.80;99.90
12520;DHT22;6325;49.540;8.364;2022-10-16T03:25:43;16.90;99.90
12520;DHT22;6325;49.540;8.364;2022-10-16T03:28:10;16.80;99.90
12520;DHT22;6325;49.540;8.364;2022-10-16T03:30:37;16.80;99.90
12520;DHT22;6325;49.540;8.364;2022-10-16T03:33:05;16.80;99.90
12520;DHT22;6325;49.540;8.364;2022-10-16T03:35:32;16.90;99.90
12520;DHT22;6325;49.540;8.364;2022-10-16T03:37:59;16.80;99.90
12520;DHT22;6325;49.540;8.364;2022-10-16T03:40:27;16.80;99.90
12520;DHT22;6325;49.540;8.364;2022-10-16T03:42:54;16.80;99.90
12520;DHT22;6325;49.540;8.364;2022-10-16T03:45:23;17.10;99.90
12520;DHT22;6325;49.540;8.364;2022-10-16T03:47:50;16.80;99.90
12520;DHT22;6325;49.540;8.364;2022-10-16T03:50:16;16.80;99.90
12520;DHT22;6325;49.540;8.364;2022-10-16T03:52:44;16.80;99.90
12520;DHT22;6325;49.540;8.364;2022-10-16T03:55:11;16.80;99.90
12520;DHT22;6325;49.540;8.364;2022-10-16T03:57:39;16.70;99.90
12520;DHT22;6325;49.540;8.364;2022-10-16T04:00:07;16.80;99.90
12520;DHT22;6325;49.540;8.364;2022-10-16T04:02:34;16.80;99.90
12520;DHT22;6325;49.540;8.364;2022-10-16T04:05:01;16.90;99.90
12520;DHT22;6325;49.540;8.364;2022-10-16T04:07:28;16.80;99.90
12520;DHT22;6325;49.540;8.364;2022-10-16T04:09:55;16.80;99.90
12520;DHT22;6325;49.540;8.364;2022-10-16T04:12:24;16.80;99.90
12520;DHT22;6325;49.540;8.364;2022-10-16T04:14:52;16.80;99.90
12520;DHT22;6325;49.540;8.364;2022-10-16T04:17:19;16.70;99.90
12520;DHT22;6325;49.540;8.364;2022-10-16T04:19:46;16.90;99.90
12520;DHT22;6325;49.540;8.364;2022-10-16T04:22:13;16.80;99.90
12520;DHT22;6325;49.540;8.364;2022-10-16T04:24:40;16.70;99.90
12520;DHT22;6325;49.540;8.364;2022-10-16T04:27:07;16.80;99.90
12520;DHT22;6325;49.540;8.364;2022-10-16T04:29:34;17.10;99.90
12520;DHT22;6325;49.540;8.364;2022-10-16T04:32:02;16.70;99.90
12520;DHT22;6325;49.540;8.364;2022-10-16T04:34:29;16.70;99.90
12520;DHT22;6325;49.540;8.364;2022-10-16T04:36:56;16.70;99.90
12520;DHT22;6325;49.540;8.364;2022-10-16T04:39:22;16.70;99.90
12520;DHT22;6325;49.540;8.364;2022-10-16T04:41:49;16.10;99.90
12520;DHT22;6325;49.540;8.364;2022-10-16T04:44:16;16.70;99.90
12520;DHT22;6325;49.540;8.364;2022-10-16T04:46:43;16.80;99.90
12520;DHT22;6325;49.540;8.364;2022-10-16T04:49:12;16.70;99.90
12520;DHT22;6325;49.540;8.364;2022-10-16T04:51:38;16.80;99.90
12520;DHT22;6325;49.540;8.364;2022-10-16T04:54:05;16.60;99.90
12520;DHT22;6325;49.540;8.364;2022-10-16T04:56:32;16.80;99.90
12520;DHT22;6325;49.540;8.364;2022-10-16T04:59:05;16.60;99.90
12520;DHT22;6325;49.540;8.364;2022-10-16T05:01:32;16.60;99.90
12520;DHT22;6325;49.540;8.364;2022-10-16T05:03:59;16.60;99.90
12520;DHT22;6325;49.540;8.364;2022-10-16T05:06:27;16.50;99.90
12520;DHT22;6325;49.540;8.364;2022-10-16T05:08:54;16.50;99.90
12520;DHT22;6325;49.540;8.364;2022-10-16T05:11:21;16.70;99.90
12520;DHT22;6325;49.540;8.364;2022-10-16T05:13:48;16.40;99.90
12520;DHT22;6325;49.540;8.364;2022-10-16T05:16:15;16.80;99.90
12520;DHT22;6325;49.540;8.364;2022-10-16T05:18:42;15.80;99.90
12520;DHT22;6325;49.540;8.364;2022-10-16T05:21:09;17.00;99.90
12520;DHT22;6325;49.540;8.364;2022-10-16T05:23:37;16.60;99.90
12520;DHT22;6325;49.540;8.364;2022-10-16T05:26:04;16.30;99.90
12520;DHT22;6325;49.540;8.364;2022-10-16T05:28:31;16.20;99.90
12520;DHT22;6325;49.540;8.364;2022-10-16T05:30:58;16.50;99.90
12520;DHT22;6325;49.540;8.364;2022-10-16T05:33:26;16.50;99.90
12520;DHT22;6325;49.540;8.364;2022-10-16T05:35:53;16.80;99.90
12520;DHT22;6325;49.540;8.364;2022-10-16T05:38:19;16.50;99.90
12520;DHT22;6325;49.540;8.364;2022-10-16T05:40:52;16.50;99.90
12520;DHT22;6325;49.540;8.364;2022-10-16T05:43:19;16.10;99.90
12520;DHT22;6325;49.540;8.364;2022-10-16T05:45:54;16.60;99.90
12520;DHT22;6325;49.540;8.364;2022-10-16T05:48:20;16.90;99.90
12520;DHT22;6325;49.540;8.364;2022-10-16T05:50:47;16.70;99.90
12520;DHT22;6325;49.540;8.364;2022-10-16T05:53:14;16.00;99.90
12520;DHT22;6325;49.540;8.364;2022-10-16T05:55:41;16.00;99.90
12520;DHT22;6325;49.540;8.364;2022-10-16T05:58:11;16.30;99.90
12520;DHT22;6325;49.540;8.364;2022-10-16T06:00:37;16.50;99.90
12520;DHT22;6325;49.540;8.364;2022-10-16T06:03:04;16.50;99.90
12520;DHT22;6325;49.540;8.364;2022-10-16T06:05:32;16.70;99.90
12520;DHT22;6325;49.540;8.364;2022-10-16T06:07:59;16.80;99.90
12520;DHT22;6325;49.540;8.364;2022-10-16T06:10:25;16.60;99.90
12520;DHT22;6325;49.540;8.364;2022-10-16T06:12:54;16.50;99.90
12520;DHT22;6325;49.540;8.364;2022-10-16T06:15:22;16.30;99.90
12520;DHT22;6325;49.540;8.364;2022-10-16T06:17:49;16.50;99.90
12520;DHT22;6325;49.540;8.364;2022-10-16T06:20:16;16.60;99.90
12520;DHT22;6325;49.540;8.364;2022-10-16T06:22:42;16.40;99.90
12520;DHT22;6325;49.540;8.364;2022-10-16T06:25:09;16.90;99.90
12520;DHT22;6325;49.540;8.364;2022-10-16T06:27:38;16.30;99.90
12520;DHT22;6325;49.540;8.364;2022-10-16T06:30:06;16.60;99.90
12520;DHT22;6325;49.540;8.364;2022-10-16T06:32:35;16.00;99.90
12520;DHT22;6325;49.540;8.364;2022-10-16T06:35:02;17.00;99.90
12520;DHT22;6325;49.540;8.364;2022-10-16T06:37:28;16.60;99.90
12520;DHT22;6325;49.540;8.364;2022-10-16T06:39:55;16.20;99.90
12520;DHT22;6325;49.540;8.364;2022-10-16T06:42:22;16.60;99.90
12520;DHT22;6325;49.540;8.364;2022-10-16T06:44:49;16.70;99.90
12520;DHT22;6325;49.540;8.364;2022-10-16T06:47:16;17.00;99.90
12520;DHT22;6325;49.540;8.364;2022-10-16T06:49:44;16.60;99.90
12520;DHT22;6325;49.540;8.364;2022-10-16T06:52:11;16.20;99.90
12520;DHT22;6325;49.540;8.364;2022-10-16T06:54:38;16.40;99.90
12520;DHT22;6325;49.540;8.364;2022-10-16T06:57:05;16.90;99.90
12520;DHT22;6325;49.540;8.364;2022-10-16T06:59:31;16.50;99.90
12520;DHT22;6325;49.540;8.364;2022-10-16T07:01:58;17.00;99.90
12520;DHT22;6325;49.540;8.364;2022-10-16T07:04:25;16.80;99.90
12520;DHT22;6325;49.540;8.364;2022-10-16T07:06:53;16.80;99.90
12520;DHT22;6325;49.540;8.364;2022-10-16T07:09:20;16.80;99.90
12520;DHT22;6325;49.540;8.364;2022-10-16T07:11:47;16.90;99.90
12520;DHT22;6325;49.540;8.364;2022-10-16T07:14:16;16.80;99.90
12520;DHT22;6325;49.540;8.364;2022-10-16T07:16:43;16.80;99.90
12520;DHT22;6325;49.540;8.364;2022-10-16T07:19:10;17.10;99.90
12520;DHT22;6325;49.540;8.364;2022-10-16T07:21:38;16.90;99.90
12520;DHT22;6325;49.540;8.364;2022-10-16T07:24:11;16.90;99.90
12520;DHT22;6325;49.540;8.364;2022-10-16T07:26:39;17.00;99.90
12520;DHT22;6325;49.540;8.364;2022-10-16T07:29:07;17.00;99.90
12520;DHT22;6325;49.540;8.364;2022-10-16T07:31:37;16.90;99.90
12520;DHT22;6325;49.540;8.364;2022-10-16T07:34:05;16.90;99.90
12520;DHT22;6325;49.540;8.364;2022-10-16T07:36:32;17.20;99.90
12520;DHT22;6325;49.540;8.364;2022-10-16T07:39:00;17.00;99.90
12520;DHT22;6325;49.540;8.364;2022-10-16T07:41:35;17.20;99.90
12520;DHT22;6325;49.540;8.364;2022-10-16T07:44:04;16.90;99.90
12520;DHT22;6325;49.540;8.364;2022-10-16T07:46:33;16.90;99.90
12520;DHT22;6325;49.540;8.364;2022-10-16T07:49:01;16.70;99.90
12520;DHT22;6325;49.540;8.364;2022-10-16T07:51:30;17.00;99.90
12520;DHT22;6325;49.540;8.364;2022-10-16T07:53:57;17.00;99.90
12520;DHT22;6325;49.540;8.364;2022-10-16T07:56:24;16.80;99.90
12520;DHT22;6325;49.540;8.364;2022-10-16T07:58:53;17.00;99.90
12520;DHT22;6325;49.540;8.364;2022-10-16T08:01:20;17.50;99.90
12520;DHT22;6325;49.540;8.364;2022-10-16T08:03:48;17.40;99.90
12520;DHT22;6325;49.540;8.364;2022-10-16T08:06:15;17.20;99.90
12520;DHT22;6325;49.540;8.364;2022-10-16T08:08:42;17.20;99.90
12520;DHT22;6325;49.540;8.364;2022-10-16T08:11:09;17.50;99.90
12520;DHT22;6325;49.540;8.364;2022-10-16T08:13:36;17.50;99.90
12520;DHT22;6325;49.540;8.364;2022-10-16T08:16:05;17.10;99.90
12520;DHT22;6325;49.540;8.364;2022-10-16T08:18:33;17.10;99.90
12520;DHT22;6325;49.540;8.364;2022-10-16T08:21:02;17.10;99.90
12520;DHT22;6325;49.540;8.364;2022-10-16T08:23:29;17.10;99.90
12520;DHT22;6325;49.540;8.364;2022-10-16T08:26:02;16.90;99.90
12520;DHT22;6325;49.540;8.364;2022-10-16T08:28:29;17.10;99.90
12520;DHT22;6325;49.540;8.364;2022-10-16T08:31:05;17.20;99.90
12520;DHT22;6325;49.540;8.364;2022-10-16T08:33:32;17.40;99.90
12520;DHT22;6325;49.540;8.364;2022-10-16T08:36:00;17.00;99.90
12520;DHT22;6325;49.540;8.364;2022-10-16T08:38:27;17.20;99.90
12520;DHT22;6325;49.540;8.364;2022-10-16T08:40:56;16.80;99.90
12520;DHT22;6325;49.540;8.364;2022-10-16T08:43:42;17.00;99.90
12520;DHT22;6325;49.540;8.364;2022-10-16T08:46:24;16.80;99.90
12520;DHT22;6325;49.540;8.364;2022-10-16T08:48:54;16.40;99.90
12520;DHT22;6325;49.540;8.364;2022-10-16T08:51:24;17.40;99.90
12520;DHT22;6325;49.540;8.364;2022-10-16T08:53:55;16.80;99.90
12520;DHT22;6325;49.540;8.364;2022-10-16T08:56:23;16.50;99.90
12520;DHT22;6325;49.540;8.364;2022-10-16T08:58:52;16.90;99.90
12520;DHT22;6325;49.540;8.364;2022-10-16T09:01:22;17.00;99.90
12520;DHT22;6325;49.540;8.364;2022-10-16T09:06:47;16.90;99.90
12520;DHT22;6325;49.540;8.364;2022-10-16T09:09:38;17.30;99.90
12520;DHT22;6325;49.540;8.364;2022-10-16T09:12:12;17.00;99.90
12520;DHT22;6325;49.540;8.364;2022-10-16T09:14:48;16.80;99.90
12520;DHT22;6325;49.540;8.364;2022-10-16T09:17:41;17.10;99.90
12520;DHT22;6325;49.540;8.364;2022-10-16T09:20:33;17.50;99.90
12520;DHT22;6325;49.540;8.364;2022-10-16T09:23:14;17.70;99.90
12520;DHT22;6325;49.540;8.364;2022-10-16T09:25:51;17.60;99.90
12520;DHT22;6325;49.540;8.364;2022-10-16T09:28:32;18.00;99.90
12520;DHT22;6325;49.540;8.364;2022-10-16T09:31:27;17.80;99.90
12520;DHT22;6325;49.540;8.364;2022-10-16T09:34:04;18.20;99.90
12520;DHT22;6325;49.540;8.364;2022-10-16T09:36:42;18.60;99.90
12520;DHT22;6325;49.540;8.364;2022-10-16T09:39:15;18.40;99.90
12520;DHT22;6325;49.540;8.364;2022-10-16T09:41:49;18.20;99.90
12520;DHT22;6325;49.540;8.364;2022-10-16T09:44:22;18.60;99.90
12520;DHT22;6325;49.540;8.364;2022-10-16T09:47:04;18.60;99.90
12520;DHT22;6325;49.540;8.364;2022-10-16T09:49:49;18.40;99.90
12520;DHT22;6325;49.540;8.364;2022-10-16T09:52:22;17.90;99.90
12520;DHT22;6325;49.540;8.364;2022-10-16T09:54:53;18.70;99.90
12520;DHT22;6325;49.540;8.364;2022-10-16T09:57:26;18.60;99.90
12520;DHT22;6325;49.540;8.364;2022-10-16T09:59:57;18.80;99.90
12520;DHT22;6325;49.540;8.364;2022-10-16T10:02:30;19.10;99.90
12520;DHT22;6325;49.540;8.364;2022-10-16T10:05:06;19.10;99.90
12520;DHT22;6325;49.540;8.364;2022-10-16T10:07:53;19.30;99.90
12520;DHT22;6325;49.540;8.364;2022-10-16T10:10:28;20.10;99.90
12520;DHT22;6325;49.540;8.364;2022-10-16T10:13:02;19.60;99.90
12520;DHT22;6325;49.540;8.364;2022-10-16T10:15:41;19.60;99.90
12520;DHT22;6325;49.540;8.364;2022-10-16T10:18:22;20.10;99.90
12520;DHT22;6325;49.540;8.364;2022-10-16T10:21:12;19.70;99.90
12520;DHT22;6325;49.540;8.364;2022-10-16T10:24:00;19.80;99.90
12520;DHT22;6325;49.540;8.364;2022-10-16T10:26:50;19.80;99.90
12520;DHT22;6325;49.540;8.364;2022-10-16T10:29:46;20.00;99.90
12520;DHT22;6325;49.540;8.364;2022-10-16T10:32:36;20.60;99.90
12520;DHT22;6325;49.540;8.364;2022-10-16T10:38:49;20.60;99.90
12520;DHT22;6325;49.540;8.364;2022-10-16T10:45:15;20.00;99.90
12520;DHT22;6325;49.540;8.364;2022-10-16T10:48:16;20.00;99.90
12520;DHT22;6325;49.540;8.364;2022-10-16T10:51:01;19.60;99.90
12520;DHT22;6325;49.540;8.364;2022-10-16T10:54:17;20.20;99.90
12520;DHT22;6325;49.540;8.364;2022-10-16T10:57:06;20.30;99.90
12520;DHT22;6325;49.540;8.364;2022-10-16T11:00:09;20.20;99.90
12520;DHT22;6325;49.540;8.364;2022-10-16T11:37:38;22.20;99.90
12520;DHT22;6325;49.540;8.364;2022-10-16T11:43:35;22.20;99.90
12520;DHT22;6325;49.540;8.364;2022-10-16T11:46:15;22.60;99.90
12520;DHT22;6325;49.540;8.364;2022-10-16T11:48:51;22.50;99.90
12520;DHT22;6325;49.540;8.364;2022-10-16T11:51:29;22.20;99.90
12520;DHT22;6325;49.540;8.364;2022-10-16T11:54:14;22.40;99.90
12520;DHT22;6325;49.540;8.364;2022-10-16T11:56:45;22.30;99.90
12520;DHT22;6325;49.540;8.364;2022-10-16T11:59:19;22.30;99.90
12520;DHT22;6325;49.540;8.364;2022-10-16T12:01:52;22.20;99.90
12520;DHT22;6325;49.540;8.364;2022-10-16T12:04:29;22.40;99.90
12520;DHT22;6325;49.540;8.364;2022-10-16T12:07:02;22.40;99.90
12520;DHT22;6325;49.540;8.364;2022-10-16T12:09:36;22.80;99.90
12520;DHT22;6325;49.540;8.364;2022-10-16T12:12:24;22.30;99.90
12520;DHT22;6325;49.540;8.364;2022-10-16T12:15:00;22.20;99.90
12520;DHT22;6325;49.540;8.364;2022-10-16T12:17:35;22.30;99.90
12520;DHT22;6325;49.540;8.364;2022-10-16T12:20:23;22.10;99.90
12520;DHT22;6325;49.540;8.364;2022-10-16T12:22:53;22.20;99.90
12520;DHT22;6325;49.540;8.364;2022-10-16T12:25:25;21.90;99.90
12520;DHT22;6325;49.540;8.364;2022-10-16T12:27:57;21.80;99.90
12520;DHT22;6325;49.540;8.364;2022-10-16T12:30:28;21.50;99.90
12520;DHT22;6325;49.540;8.364;2022-10-16T12:32:59;21.70;99.90
12520;DHT22;6325;49.540;8.364;2022-10-16T12:35:31;21.70;99.90
12520;DHT22;6325;49.540;8.364;2022-10-16T12:38:07;21.70;99.90
12520;DHT22;6325;49.540;8.364;2022-10-16T12:40:38;21.60;99.90
12520;DHT22;6325;49.540;8.364;2022-10-16T12:43:24;21.70;99.90
12520;DHT22;6325;49.540;8.364;2022-10-16T12:46:03;21.70;99.90
12520;DHT22;6325;49.540;8.364;2022-10-16T12:48:31;21.80;99.90
12520;DHT22;6325;49.540;8.364;2022-10-16T12:51:09;21.90;99.90
12520;DHT22;6325;49.540;8.364;2022-10-16T12:53:37;21.80;99.90
12520;DHT22;6325;49.540;8.364;2022-10-16T12:56:11;22.30;99.90
12520;DHT22;6325;49.540;8.364;2022-10-16T12:58:55;21.80;99.90
12520;DHT22;6325;49.540;8.364;2022-10-16T13:01:37;21.60;99.90
12520;DHT22;6325;49.540;8.364;2022-10-16T13:04:27;21.70;99.90
12520;DHT22;6325;49.540;8.364;2022-10-16T13:07:05;21.90;99.90
12520;DHT22;6325;49.540;8.364;2022-10-16T13:09:43;21.60;99.90
12520;DHT22;6325;49.540;8.364;2022-10-16T13:12:37;21.60;99.90
12520;DHT22;6325;49.540;8.364;2022-10-16T13:15:27;21.50;99.90
12520;DHT22;6325;49.540;8.364;2022-10-16T13:18:02;21.10;99.90
12520;DHT22;6325;49.540;8.364;2022-10-16T13:20:35;21.20;99.90
12520;DHT22;6325;49.540;8.364;2022-10-16T13:23:12;21.40;99.90
12520;DHT22;6325;49.540;8.364;2022-10-16T13:25:58;21.40;99.90
12520;DHT22;6325;49.540;8.364;2022-10-16T13:28:31;21.50;99.90
12520;DHT22;6325;49.540;8.364;2022-10-16T13:30:59;21.50;99.90
12520;DHT22;6325;49.540;8.364;2022-10-16T13:33:31;21.20;99.90
12520;DHT22;6325;49.540;8.364;2022-10-16T13:35:59;21.50;99.90
12520;DHT22;6325;49.540;8.364;2022-10-16T13:38:27;21.00;99.90
12520;DHT22;6325;49.540;8.364;2022-10-16T13:40:56;21.50;99.90
12520;DHT22;6325;49.540;8.364;2022-10-16T13:43:29;21.00;99.90
12520;DHT22;6325;49.540;8.364;2022-10-16T13:46:01;21.30;99.90
12520;DHT22;6325;49.540;8.364;2022-10-16T13:48:29;21.10;99.90
12520;DHT22;6325;49.540;8.364;2022-10-16T13:51:01;21.00;99.90
12520;DHT22;6325;49.540;8.364;2022-10-16T13:53:30;21.00;99.90
12520;DHT22;6325;49.540;8.364;2022-10-16T13:55:59;20.90;99.90
12520;DHT22;6325;49.540;8.364;2022-10-16T13:58:26;20.90;99.90
12520;DHT22;6325;49.540;8.364;2022-10-16T14:00:58;20.90;99.90
12520;DHT22;6325;49.540;8.364;2022-10-16T14:03:27;20.50;99.90
12520;DHT22;6325;49.540;8.364;2022-10-16T14:05:59;21.40;99.90
12520;DHT22;6325;49.540;8.364;2022-10-16T14:08:28;20.90;99.90
12520;DHT22;6325;49.540;8.364;2022-10-16T14:10:57;20.80;99.90
12520;DHT22;6325;49.540;8.364;2022-10-16T14:13:31;20.60;99.90
12520;DHT22;6325;49.540;8.364;2022-10-16T14:16:04;21.20;99.90
12520;DHT22;6325;49.540;8.364;2022-10-16T14:18:32;20.70;99.90
12520;DHT22;6325;49.540;8.364;2022-10-16T14:21:04;21.00;99.90
12520;DHT22;6325;49.540;8.364;2022-10-16T14:23:34;21.00;99.90
12520;DHT22;6325;49.540;8.364;2022-10-16T14:26:12;21.20;99.90
12520;DHT22;6325;49.540;8.364;2022-10-16T14:28:40;20.70;99.90
12520;DHT22;6325;49.540;8.364;2022-10-16T14:31:32;21.00;99.90
12520;DHT22;6325;49.540;8.364;2022-10-16T14:34:02;20.80;99.90
12520;DHT22;6325;49.540;8.364;2022-10-16T14:36:33;20.60;99.90
12520;DHT22;6325;49.540;8.364;2022-10-16T14:39:03;20.80;99.90
12520;DHT22;6325;49.540;8.364;2022-10-16T14:41:33;21.10;99.90
12520;DHT22;6325;49.540;8.364;2022-10-16T14:44:04;21.00;99.90
12520;DHT22;6325;49.540;8.364;2022-10-16T14:46:36;20.70;99.90
12520;DHT22;6325;49.540;8.364;2022-10-16T14:49:13;20.60;99.90
12520;DHT22;6325;49.540;8.364;2022-10-16T14:51:42;20.90;99.90
12520;DHT22;6325;49.540;8.364;2022-10-16T14:54:10;20.80;99.90
12520;DHT22;6325;49.540;8.364;2022-10-16T14:56:45;20.90;99.90
12520;DHT22;6325;49.540;8.364;2022-10-16T14:59:16;20.70;99.90
12520;DHT22;6325;49.540;8.364;2022-10-16T15:01:45;20.60;99.90
12520;DHT22;6325;49.540;8.364;2022-10-16T15:04:13;21.00;99.90
12520;DHT22;6325;49.540;8.364;2022-10-16T15:06:41;20.70;99.90
12520;DHT22;6325;49.540;8.364;2022-10-16T15:09:08;20.80;99.90
12520;DHT22;6325;49.540;8.364;2022-10-16T15:11:36;20.90;99.90
12520;DHT22;6325;49.540;8.364;2022-10-16T15:14:04;21.00;99.90
12520;DHT22;6325;49.540;8.364;2022-10-16T15:16:31;21.10;99.90
12520;DHT22;6325;49.540;8.364;2022-10-16T15:19:00;21.10;99.90
12520;DHT22;6325;49.540;8.364;2022-10-16T15:21:29;21.30;99.90
12520;DHT22;6325;49.540;8.364;2022-10-16T15:23:56;21.20;99.90
12520;DHT22;6325;49.540;8.364;2022-10-16T15:26:25;21.30;99.90
12520;DHT22;6325;49.540;8.364;2022-10-16T15:28:54;21.30;99.90
12520;DHT22;6325;49.540;8.364;2022-10-16T15:31:23;21.20;99.90
12520;DHT22;6325;49.540;8.364;2022-10-16T15:33:51;21.20;99.90
12520;DHT22;6325;49.540;8.364;2022-10-16T15:36:27;21.10;99.90
12520;DHT22;6325;49.540;8.364;2022-10-16T15:38:55;21.00;99.90
12520;DHT22;6325;49.540;8.364;2022-10-16T15:41:22;21.00;99.90
12520;DHT22;6325;49.540;8.364;2022-10-16T15:43:49;21.00;99.90
12520;DHT22;6325;49.540;8.364;2022-10-16T15:46:19;20.90;99.90
12520;DHT22;6325;49.540;8.364;2022-10-16T15:48:46;21.40;99.90
12520;DHT22;6325;49.540;8.364;2022-10-16T15:51:14;20.90;99.90
12520;DHT22;6325;49.540;8.364;2022-10-16T15:53:42;20.40;99.90
12520;DHT22;6325;49.540;8.364;2022-10-16T15:56:12;20.80;99.90
12520;DHT22;6325;49.540;8.364;2022-10-16T15:58:40;20.20;99.90
12520;DHT22;6325;49.540;8.364;2022-10-16T16:01:07;20.60;99.90
12520;DHT22;6325;49.540;8.364;2022-10-16T16:03:36;21.10;99.90
12520;DHT22;6325;49.540;8.364;2022-10-16T16:06:05;20.50;99.90
12520;DHT22;6325;49.540;8.364;2022-10-16T16:08:33;20.20;99.90
12520;DHT22;6325;49.540;8.364;2022-10-16T16:11:04;20.20;99.90
12520;DHT22;6325;49.540;8.364;2022-10-16T16:13:32;20.70;99.90
12520;DHT22;6325;49.540;8.364;2022-10-16T16:15:59;20.20;99.90
12520;DHT22;6325;49.540;8.364;2022-10-16T16:18:26;20.50;99.90
12520;DHT22;6325;49.540;8.364;2022-10-16T16:20:55;20.00;99.90
12520;DHT22;6325;49.540;8.364;2022-10-16T16:23:22;19.80;99.90
12520;DHT22;6325;49.540;8.364;2022-10-16T16:26:09;20.50;99.90
12520;DHT22;6325;49.540;8.364;2022-10-16T16:28:37;20.10;99.90
12520;DHT22;6325;49.540;8.364;2022-10-16T16:31:05;19.50;99.90
12520;DHT22;6325;49.540;8.364;2022-10-16T16:33:32;19.50;99.90
12520;DHT22;6325;49.540;8.364;2022-10-16T16:36:00;19.20;99.90
12520;DHT22;6325;49.540;8.364;2022-10-16T16:38:28;18.80;99.90
12520;DHT22;6325;49.540;8.364;2022-10-16T16:40:55;19.00;99.90
12520;DHT22;6325;49.540;8.364;2022-10-16T16:43:24;19.20;99.90
12520;DHT22;6325;49.540;8.364;2022-10-16T16:45:52;19.30;99.90
12520;DHT22;6325;49.540;8.364;2022-10-16T16:48:19;19.00;99.90
12520;DHT22;6325;49.540;8.364;2022-10-16T16:50:46;18.80;99.90
12520;DHT22;6325;49.540;8.364;2022-10-16T16:53:13;18.50;99.90
12520;DHT22;6325;49.540;8.364;2022-10-16T16:55:40;18.70;99.90
12520;DHT22;6325;49.540;8.364;2022-10-16T16:58:07;18.80;99.90